NCAR-RAP Real-Time Weather Data

Output produced by METARs form (08 May 2021  02:21 UTC)
found at http://weather.rap.ucar.edu/surface/
 
KHIO 080153Z 32010KT 10SM CLR 13/02 A3032 RMK AO2 SLP267 T01280022
KHIO 080053Z 32012KT 10SM CLR 14/01 A3031 RMK AO2 SLP263 T01440011
KHIO 072353Z 30013KT 10SM BKN060 15/00 A3030 RMK AO2 SLP262 60000 T01500000 10156 20106 53002
KHIO 072253Z 30014G21KT 10SM BKN060 15/02 A3029 RMK AO2 SLP259 T01500022
KHIO 072153Z COR 33014G20KT 10SM SCT049 BKN060 14/04 A3029 RMK AO2 SLP256 T01440039
KHIO 072053Z 33007G15KT 10SM FEW038 SCT046 BKN095 13/04 A3030 RMK AO2 WSHFT 2023 RAE17 SLP260 P0000 60000 T01330039 51011
KHIO 072043Z 35011KT 10SM SCT038 BKN046 BKN065 12/03 A3030 RMK AO2 WSHFT 2023 RAE17 P0000 T01220033
KHIO 071953Z 29012KT 10SM -RA FEW041 BKN055 OVC065 11/05 A3029 RMK AO2 RAE1858B36 SLP258 P0000 T01110050
KHIO 071853Z 32008KT 10SM -RA SCT034 BKN040 BKN060 11/06 A3028 RMK AO2 RAB40 SLP254 P0000 T01110056
KHIO 071753Z 22006KT 10SM SCT034 BKN040 BKN060 12/04 A3026 RMK AO2 SLP249 60000 T01170044 10122 20061 51008
KHIO 071653Z 28004KT 10SM SCT028 BKN038 BKN047 11/04 A3026 RMK AO2 SLP246 T01060039
KHIO 071553Z 20007KT 10SM SCT050 11/05 A3026 RMK AO2 SLP246 T01060050
KHIO 071453Z 20006KT 10SM FEW014 BKN100 09/06 A3024 RMK AO2 SLP241 60000 T00940061 51012
KHIO 071353Z 00000KT 10SM FEW070 SCT100 07/06 A3023 RMK AO2 RAB10E27 SLP239 P0000 T00720056